Nearby METAR Reports

 

KDPA - Chicago/Dupage, Illinois, USA
Distance from station: ESE 9mi, 15km
Updated: Mon, 23-Jul-2018 7:52am CDT
Clear
Clear
 Wind from NW
Wind: NW 6 mph , 9 km/h
Temperature: 70°F , 21°C
Dew Point: 63°F , 17°C
Humidity: 78%
Barometer: 29.94 inHg , 1013.9 hPa
Clouds: Clear
Visibility: 7 miles , 11 km
2018/07/23 12:52 KDPA 231252Z 32005KT 7SM CLR 21/17 A2994 RMK AO2 SLP136 T02060172
KARR - Chicago/Aurora, Illinois, USA
Distance from station: SSW 14mi, 22km
Updated: Mon, 23-Jul-2018 7:52am CDT
Clear
Clear
 Wind from NW
Wind: NW 7 mph , 11 km/h
Temperature: 68°F , 20°C
Dew Point: 64°F , 18°C
Humidity: 88%
Barometer: 29.95 inHg , 1014.2 hPa
Clouds: Clear
Visibility: 8 miles , 13 km
2018/07/23 12:52 KARR 231252Z 32006KT 8SM CLR 20/18 A2995 RMK AO2 SLP139 T02000178
 
KDKB - De Kalb, Illinois, USA
Distance from station: W 14mi, 23km
Updated: Mon, 23-Jul-2018 7:55am CDT
Clear
Clear
 Wind from NW
Wind: NW 8 mph , 13 km/h
Temperature: 66°F , 19°C
Dew Point: 64°F , 18°C
Humidity: 94%
Barometer: 29.98 inHg , 1015.2 hPa
Clouds: Clear
Visibility: 10 miles , 16 km
2018/07/23 12:55 KDKB 231255Z AUTO 32007KT 10SM CLR 19/18 A2998 RMK AO2 T01930175
KORD - Chicago O'hare, Illinois, USA
Distance from station: E 25mi, 41km
Updated: Mon, 23-Jul-2018 7:51am CDT
Clear
Clear
 Wind from NNW
Wind: NNW 9 mph , 15 km/h
Temperature: 70°F , 21°C
Dew Point: 61°F , 16°C
Humidity: 73%
Barometer: 29.94 inHg , 1013.9 hPa
Clouds: Clear
Visibility: 10 miles , 16 km
2018/07/23 12:51 KORD 231251Z 34008KT 10SM CLR 21/16 A2994 RMK AO2 SLP133 T02110161
 
KPWK - Palwaukee, Illinois, USA
Distance from station: ENE 29mi, 47km
Updated: Mon, 23-Jul-2018 7:52am CDT
Clear
Clear
 Wind from NNW
Wind: NNW 7 mph , 11 km/h
Temperature: 70°F , 21°C
Dew Point: 64°F , 18°C
Humidity: 83%
Barometer: 29.95 inHg , 1014.2 hPa
Clouds: Clear
Visibility: 10 miles , 16 km
2018/07/23 12:52 KPWK 231252Z 33006KT 10SM CLR 21/18 A2995 RMK AO2 SLP139 T02110178
KLOT - Romeoville/Chi, Illinois, USA
Distance from station: SE 30mi, 48km
Updated: Mon, 23-Jul-2018 7:55am CDT
Clear
Clear
 Wind from NNW
Wind: NNW 7 mph , 11 km/h
Temperature: 68°F , 20°C
Dew Point: 63°F , 17°C
Humidity: 83%
Barometer: 29.95 inHg , 1014.2 hPa
Clouds: Clear
Visibility: 10 miles , 16 km
2018/07/23 12:55 KLOT 231255Z AUTO 33006KT 10SM CLR 20/17 A2995 RMK AO2 T02040170
 
KJOT - Joliet, Illinois, USA
Distance from station: SSE 33mi, 53km
Updated: Mon, 23-Jul-2018 7:55am CDT
Clear
Clear
 Wind from NNW
Wind: NNW 3 mph , 6 km/h
Temperature: 70°F , 21°C
Dew Point: 63°F , 17°C
Humidity: 78%
Barometer: 29.95 inHg , 1014.2 hPa
Clouds: Clear
Visibility: 10 miles , 16 km
2018/07/23 12:55 KJOT 231255Z AUTO 34003KT 10SM CLR 21/17 A2995 RMK AO2 T02080174
KRPJ - Rochelle/Koritz, Illinois, USA
Distance from station: W 34mi, 55km
Updated: Mon, 23-Jul-2018 7:55am CDT
Clear
Clear
 Wind from NNW
Wind: NNW 3 mph , 6 km/h
Temperature: 66°F , 19°C
Dew Point: 64°F , 18°C
Humidity: 94%
Barometer: 29.99 inHg , 1015.6 hPa
Clouds: Clear
Visibility: 10 miles , 16 km
2018/07/23 12:55 KRPJ 231255Z AUTO 33003KT 10SM CLR 19/18 A2999 RMK AO2 T01900178
 
KC09 - Morris-Washburn, Illinois, USA
Distance from station: S 36mi, 59km
Updated: Mon, 23-Jul-2018 7:55am CDT
Clear
Clear
 Wind from calm
Wind: Calm
Temperature: 68°F , 20°C
Dew Point: 63°F , 17°C
Humidity: 83%
Barometer: 29.95 inHg , 1014.2 hPa
Clouds: Clear
Visibility: 10 miles , 16 km
2018/07/23 12:55 KC09 231255Z AUTO 00000KT 10SM CLR 20/17 A2995 RMK AO2 T01950174
KMDW - Chicago, Illinois, USA
Distance from station: ESE 37mi, 59km
Updated: Mon, 23-Jul-2018 7:53am CDT
Few Clouds
Few Clouds
 Wind from N
Wind: N 8 mph , 13 km/h
Temperature: 72°F , 22°C
Dew Point: 63°F , 17°C
Humidity: 73%
Barometer: 29.93 inHg , 1013.5 hPa
Clouds: Few Clouds
Visibility: 10 miles , 16 km
Cloud details: Few Clouds 8500 ft
2018/07/23 12:53 KMDW 231253Z 35007KT 10SM FEW085 22/17 A2993 RMK AO2 SLP127 T02170167
 
KRFD - Rockford, Illinois, USA
Distance from station: WNW 38mi, 62km
Updated: Mon, 23-Jul-2018 7:54am CDT
Clear
Clear
 Wind from NNW
Wind: NNW 8 mph , 13 km/h
Temperature: 70°F , 21°C
Dew Point: 63°F , 17°C
Humidity: 78%
Barometer: 29.99 inHg , 1015.6 hPa
Clouds: Clear
Visibility: 10 miles , 16 km
2018/07/23 12:54 KRFD 231254Z 34007KT 10SM CLR 21/17 A2999 RMK AO2 SLP150 T02060167
KUGN - Waukegan, Illinois, USA
Distance from station: NE 42mi, 68km
Updated: Mon, 23-Jul-2018 7:55am CDT
Clear
Clear
 Wind from varies
Wind: varies 6 mph , 9 km/h
Temperature: 68°F , 20°C
Dew Point: 63°F , 17°C
Humidity: 83%
Barometer: 29.94 inHg , 1013.9 hPa
Clouds: Clear
Visibility: 10 miles , 16 km
2018/07/23 12:55 KUGN 231255Z VRB05KT 10SM CLR 20/17 A2994 RMK AO2 SLP129 T02000172
 
KBUU - Burlington, Wisconsin, USA
Distance from station: N 50mi, 81km
Updated: Mon, 23-Jul-2018 7:55am CDT
Clear
Clear
 Wind from NNW
Wind: NNW 6 mph , 9 km/h
Temperature: 66°F , 19°C
Dew Point: 63°F , 17°C
Humidity: 88%
Barometer: 29.96 inHg , 1014.6 hPa
Clouds: Clear
Visibility: 10 miles , 16 km
2018/07/23 12:55 KBUU 231255Z AUTO 34005KT 10SM CLR 19/17 A2996 RMK AO2 T01880168